Wilton, AL (35187)

1:33 AM CDT on July 27, 2016 (GMT -0500)
Montevallo | | Change Station

Elev 502 ft 33.04 °N, 86.88 °W | Updated 8 seconds ago

Clear
Clear
75.6 °F
Feels Like 77 °F
N
0.0
Wind Variable Wind from South
Gusts 0.0 mph

Today
High -- | Low -- °F
--% Chance of Precip.
Yesterday
High -- | Low -- °F
Precip. -- in
Pressure 30.01 in
Visibility 10.0 miles
Clouds Clear
Heat Index 77 °F
Dew Point 69 °F
Humidity 79%
Rainfall 0.00 in
Snow Depth Not available.
5:57 AM 7:49 PM
Waning Gibbous, 46% visible
METAR KEET 270553Z AUTO 14004KT 10SM CLR 25/23 A3003 RMK AO2 SLP162 T02500228 10300 20250 403500228 50004
Pressure 30.01 in
Visibility 10.0 miles
Clouds Clear
Heat Index 77 °F
Dew Point 69 °F
Humidity 79%
Rainfall 0.00 in
Snow Depth Not available.
5:57 AM 7:49 PM
Waning Gibbous, 46% visible
METAR KEET 270553Z AUTO 14004KT 10SM CLR 25/23 A3003 RMK AO2 SLP162 T02500228 10300 20250 403500228 50004

10-Day Weather Forecast

Almanac

Astronomy

Jul. 27, 2016 Rise Set
Actual Time
Civil Twilight
Nautical Twilight
Astronomical Twilight
Moon
Length of Visible Light
Length of Day
Tomorrow will be .
, % of the Moon is Illuminated

Today's Extremes

State Highs State Lows

Community

WunderPhotos

Upload Photos

1,927,818 photos uploaded!

WunderBlog® & News

Nearby

Air Quality

  Air Quality AQ Index Pollutant
Not available.

Snow Depth

Station Depth Elevation

Earthquake Activity

City Distance Mag. Time & Date
Minimum magnitude displayed is 2.5.

Coastal Water Temperatures

Place Temperature

Stations

Nearby Weather Stations

Station Location Temp. Windchill Dew Point Humidity Wind Precip. Elev Updated Type
                   

Watches & Warnings

There are currently no watches in effect.